createdAt,value
2019-05-14T00:00:01.183Z,1029.11
2019-05-14T00:01:03.463Z,1029.06
2019-05-14T00:02:02.871Z,1029.01
2019-05-14T00:03:02.355Z,1029.07
2019-05-14T00:04:11.505Z,1029.07
2019-05-14T00:05:12.201Z,1029.03
2019-05-14T00:06:11.545Z,1029.01
2019-05-14T00:07:11.602Z,1029.03
2019-05-14T00:08:02.240Z,1029.00
2019-05-14T00:09:12.179Z,1028.99
2019-05-14T00:10:11.851Z,1029.00
2019-05-14T00:11:12.979Z,1028.96
2019-05-14T00:12:02.564Z,1028.95
2019-05-14T00:13:11.995Z,1028.97
2019-05-14T00:14:01.351Z,1028.91
2019-05-14T00:15:02.092Z,1028.93
2019-05-14T00:16:01.351Z,1028.95
2019-05-14T00:17:01.792Z,1028.92
2019-05-14T00:18:01.258Z,1028.94
2019-05-14T00:19:01.685Z,1028.94
2019-05-14T00:20:07.243Z,1028.95
2019-05-14T00:21:02.204Z,1028.92
2019-05-14T00:22:02.031Z,1028.94
2019-05-14T00:23:01.447Z,1028.92
2019-05-14T00:24:01.829Z,1028.91
2019-05-14T00:25:01.208Z,1028.92
2019-05-14T00:26:01.797Z,1028.92
2019-05-14T00:27:02.107Z,1028.91
2019-05-14T00:28:01.384Z,1028.90
2019-05-14T00:29:01.664Z,1028.90
2019-05-14T00:30:02.451Z,1028.92
2019-05-14T00:31:02.881Z,1028.92
2019-05-14T00:32:01.945Z,1028.88
2019-05-14T00:33:01.366Z,1028.90
2019-05-14T00:34:01.792Z,1028.91
2019-05-14T00:35:02.011Z,1028.91
2019-05-14T00:36:02.136Z,1028.92
2019-05-14T00:37:01.563Z,1028.89
2019-05-14T00:38:01.366Z,1028.89
2019-05-14T00:39:01.792Z,1028.93
2019-05-14T00:40:01.284Z,1028.91
2019-05-14T00:41:02.075Z,1028.89
2019-05-14T00:42:01.808Z,1028.88
2019-05-14T00:43:02.650Z,1028.88
2019-05-14T00:44:01.927Z,1028.90
2019-05-14T00:45:01.168Z,1028.84
2019-05-14T00:46:01.680Z,1028.81
2019-05-14T00:47:02.134Z,1028.80
2019-05-14T00:48:01.505Z,1028.79
2019-05-14T00:49:01.814Z,1028.81
2019-05-14T00:50:02.265Z,1028.80
2019-05-14T00:51:02.202Z,1028.79
2019-05-14T00:52:02.325Z,1028.84
2019-05-14T00:53:01.880Z,1028.79
2019-05-14T00:54:01.722Z,1028.77
2019-05-14T00:55:01.109Z,1028.80
2019-05-14T00:56:02.095Z,1028.75
2019-05-14T00:57:01.407Z,1028.78
2019-05-14T00:58:02.391Z,1028.74
2019-05-14T00:59:01.378Z,1028.76
2019-05-14T01:00:01.150Z,1028.72
2019-05-14T01:01:01.530Z,1028.79
2019-05-14T01:02:03.107Z,1028.75
2019-05-14T01:03:02.106Z,1028.79
2019-05-14T01:04:01.316Z,1028.77
2019-05-14T01:05:01.899Z,1028.80
2019-05-14T01:06:02.634Z,1028.76
2019-05-14T01:07:01.572Z,1028.76
2019-05-14T01:08:01.873Z,1028.78
2019-05-14T01:09:01.393Z,1028.76
2019-05-14T01:10:01.308Z,1028.79
2019-05-14T01:11:01.584Z,1028.76
2019-05-14T01:12:01.820Z,1028.77
2019-05-14T01:13:01.267Z,1028.73
2019-05-14T01:14:01.700Z,1028.74
2019-05-14T01:15:07.853Z,1028.74
2019-05-14T01:16:01.759Z,1028.71
2019-05-14T01:17:02.015Z,1028.67
2019-05-14T01:18:02.235Z,1028.72
2019-05-14T01:19:02.116Z,1028.73
2019-05-14T01:20:02.862Z,1028.73
2019-05-14T01:21:01.126Z,1028.74
2019-05-14T01:22:01.711Z,1028.69
2019-05-14T01:23:02.229Z,1028.71
2019-05-14T01:24:02.079Z,1028.77
2019-05-14T01:25:01.593Z,1028.77
2019-05-14T01:26:02.347Z,1028.77
2019-05-14T01:27:01.616Z,1028.78
2019-05-14T01:28:02.084Z,1028.83
2019-05-14T01:29:01.395Z,1028.76
2019-05-14T01:30:02.062Z,1028.81
2019-05-14T01:31:01.146Z,1028.77
2019-05-14T01:32:01.283Z,1028.79
2019-05-14T01:33:01.825Z,1028.77
2019-05-14T01:34:02.196Z,1028.76
2019-05-14T01:35:01.361Z,1028.75
2019-05-14T01:36:02.009Z,1028.77
2019-05-14T01:37:02.242Z,1028.75
2019-05-14T01:38:02.444Z,1028.78
2019-05-14T01:39:01.837Z,1028.77
2019-05-14T01:40:01.189Z,1028.74
2019-05-14T01:41:01.881Z,1028.77
2019-05-14T01:42:02.553Z,1028.74
2019-05-14T01:43:02.381Z,1028.77
2019-05-14T01:44:01.833Z,1028.77
2019-05-14T01:45:02.425Z,1028.75
2019-05-14T01:46:01.872Z,1028.76
2019-05-14T01:47:01.954Z,1028.77
2019-05-14T01:48:01.290Z,1028.76
2019-05-14T01:49:01.563Z,1028.74
2019-05-14T01:50:02.049Z,1028.75
2019-05-14T01:51:01.557Z,1028.79
2019-05-14T01:52:01.778Z,1028.76
2019-05-14T01:53:01.259Z,1028.77
2019-05-14T01:54:01.493Z,1028.79
2019-05-14T01:55:02.007Z,1028.79
2019-05-14T01:56:01.635Z,1028.79
2019-05-14T01:57:02.030Z,1028.79
2019-05-14T01:58:02.116Z,1028.81
2019-05-14T01:59:01.657Z,1028.79
2019-05-14T02:00:02.114Z,1028.80
2019-05-14T02:01:02.033Z,1028.77
2019-05-14T02:02:02.155Z,1028.80
2019-05-14T02:03:01.816Z,1028.77
2019-05-14T02:04:02.146Z,1028.77
2019-05-14T02:05:02.056Z,1028.84
2019-05-14T02:06:01.458Z,1028.81
2019-05-14T02:07:02.133Z,1028.81
2019-05-14T02:08:01.743Z,1028.82
2019-05-14T02:09:01.873Z,1028.81
2019-05-14T02:10:01.107Z,1028.83
2019-05-14T02:11:01.634Z,1028.85
2019-05-14T02:12:02.019Z,1028.84
2019-05-14T02:13:02.021Z,1028.82
2019-05-14T02:13:59.747Z,1028.84
2019-05-14T02:15:01.809Z,1028.88
2019-05-14T02:16:01.356Z,1028.85
2019-05-14T02:17:01.845Z,1028.83
2019-05-14T02:18:02.092Z,1028.83
2019-05-14T02:19:01.406Z,1028.80
2019-05-14T02:20:01.855Z,1028.88
2019-05-14T02:21:01.570Z,1028.82
2019-05-14T02:22:01.873Z,1028.80
2019-05-14T02:23:01.493Z,1028.87
2019-05-14T02:24:01.829Z,1028.79
2019-05-14T02:24:59.620Z,1028.82
2019-05-14T02:25:59.628Z,1028.78
2019-05-14T02:27:01.813Z,1028.85
2019-05-14T02:28:01.359Z,1028.83
2019-05-14T02:29:01.799Z,1028.76
2019-05-14T02:30:01.719Z,1028.79
2019-05-14T02:31:03.358Z,1028.83
2019-05-14T02:31:59.583Z,1028.80
2019-05-14T02:32:59.746Z,1028.81
2019-05-14T02:33:59.545Z,1028.83
2019-05-14T02:34:59.541Z,1028.83
2019-05-14T02:36:00.205Z,1028.83
2019-05-14T02:37:00.391Z,1028.83
2019-05-14T02:37:59.855Z,1028.81
2019-05-14T02:39:00.491Z,1028.79
2019-05-14T02:39:59.822Z,1028.81
2019-05-14T02:41:00.137Z,1028.80
2019-05-14T02:41:59.480Z,1028.76
2019-05-14T02:42:59.597Z,1028.78
2019-05-14T02:43:59.619Z,1028.80
2019-05-14T02:44:59.450Z,1028.73
2019-05-14T02:46:10.620Z,1028.78
2019-05-14T02:47:00.388Z,1028.72
2019-05-14T02:48:00.279Z,1028.78
2019-05-14T02:48:59.672Z,1028.78
2019-05-14T02:49:59.383Z,1028.81
2019-05-14T02:51:00.099Z,1028.76
2019-05-14T02:51:59.380Z,1028.79
2019-05-14T02:53:00.070Z,1028.80
2019-05-14T02:53:59.408Z,1028.77
2019-05-14T02:54:59.809Z,1028.77
2019-05-14T02:55:59.650Z,1028.75
2019-05-14T02:57:00.105Z,1028.73
2019-05-14T02:57:59.965Z,1028.73
2019-05-14T02:58:59.983Z,1028.75
2019-05-14T02:59:59.817Z,1028.77
2019-05-14T03:01:00.511Z,1028.72
2019-05-14T03:01:59.350Z,1028.79
2019-05-14T03:02:59.901Z,1028.78
2019-05-14T03:03:59.792Z,1028.79
2019-05-14T03:04:59.403Z,1028.73
2019-05-14T03:06:00.237Z,1028.80
2019-05-14T03:06:59.362Z,1028.81
2019-05-14T03:07:59.892Z,1028.80
2019-05-14T03:08:59.929Z,1028.82
2019-05-14T03:09:59.451Z,1028.80
2019-05-14T03:11:00.284Z,1028.82
2019-05-14T03:11:59.662Z,1028.81
2019-05-14T03:12:59.228Z,1028.79
2019-05-14T03:14:00.074Z,1028.82
2019-05-14T03:14:59.163Z,1028.79
2019-05-14T03:15:59.638Z,1028.77
2019-05-14T03:16:59.574Z,1028.77
2019-05-14T03:17:59.970Z,1028.77
2019-05-14T03:18:59.681Z,1028.79
2019-05-14T03:20:00.050Z,1028.80
2019-05-14T03:21:00.809Z,1028.78
2019-05-14T03:22:00.248Z,1028.77
2019-05-14T03:23:08.013Z,1028.79
2019-05-14T03:24:00.942Z,1028.83
2019-05-14T03:24:59.825Z,1028.72
2019-05-14T03:26:00.451Z,1028.80
2019-05-14T03:26:59.012Z,1028.75
2019-05-14T03:28:00.005Z,1028.71
2019-05-14T03:29:00.029Z,1028.77
2019-05-14T03:29:58.954Z,1028.78
2019-05-14T03:31:02.822Z,1028.78
2019-05-14T03:32:02.877Z,1028.77
2019-05-14T03:33:02.654Z,1028.80
2019-05-14T03:34:02.677Z,1028.77
2019-05-14T03:35:03.515Z,1028.80
2019-05-14T03:36:08.234Z,1028.75
2019-05-14T03:37:03.186Z,1028.80
2019-05-14T03:38:00.450Z,1028.81
2019-05-14T03:38:59.407Z,1028.82
2019-05-14T03:39:59.416Z,1028.81
2019-05-14T03:41:00.163Z,1028.80
2019-05-14T03:41:59.231Z,1028.81
2019-05-14T03:42:59.870Z,1028.82
2019-05-14T03:44:00.092Z,1028.83
2019-05-14T03:44:59.756Z,1028.81
2019-05-14T03:45:59.499Z,1028.81
2019-05-14T03:47:04.630Z,1028.84
2019-05-14T03:47:59.757Z,1028.81
2019-05-14T03:49:00.153Z,1028.84
2019-05-14T03:49:59.002Z,1028.84
2019-05-14T03:51:00.264Z,1028.81
2019-05-14T03:52:00.420Z,1028.82
2019-05-14T03:52:59.434Z,1028.80
2019-05-14T03:54:06.581Z,1028.82
2019-05-14T03:55:04.293Z,1028.83
2019-05-14T03:55:59.663Z,1028.80
2019-05-14T03:57:00.326Z,1028.75
2019-05-14T03:57:59.554Z,1028.76
2019-05-14T03:58:59.931Z,1028.77
2019-05-14T03:59:59.643Z,1028.77
2019-05-14T04:01:00.388Z,1028.78
2019-05-14T04:01:59.609Z,1028.81
2019-05-14T04:03:00.302Z,1028.79
2019-05-14T04:03:59.392Z,1028.81
2019-05-14T04:05:00.025Z,1028.75
2019-05-14T04:05:59.411Z,1028.80
2019-05-14T04:06:59.905Z,1028.76
2019-05-14T04:08:00.111Z,1028.74
2019-05-14T04:09:00.551Z,1028.77
2019-05-14T04:09:59.500Z,1028.75
2019-05-14T04:10:59.313Z,1028.76
2019-05-14T04:11:59.436Z,1028.80
2019-05-14T04:12:59.892Z,1028.74
2019-05-14T04:14:00.160Z,1028.70
2019-05-14T04:14:59.589Z,1028.72
2019-05-14T04:16:00.173Z,1028.73
2019-05-14T04:17:08.895Z,1028.71
2019-05-14T04:17:59.762Z,1028.72
2019-05-14T04:18:59.447Z,1028.75
2019-05-14T04:19:59.978Z,1028.76
2019-05-14T04:20:59.562Z,1028.78
2019-05-14T04:21:59.793Z,1028.79
2019-05-14T04:22:59.997Z,1028.73
2019-05-14T04:23:59.440Z,1028.75
2019-05-14T04:24:59.756Z,1028.77
2019-05-14T04:26:00.638Z,1028.75
2019-05-14T04:27:07.323Z,1028.73
2019-05-14T04:27:59.738Z,1028.74
2019-05-14T04:29:00.348Z,1028.71
2019-05-14T04:29:59.008Z,1028.70
2019-05-14T04:30:59.615Z,1028.68
2019-05-14T04:32:00.215Z,1028.74
2019-05-14T04:32:59.444Z,1028.72
2019-05-14T04:33:59.308Z,1028.73
2019-05-14T04:34:59.699Z,1028.72
2019-05-14T04:35:59.891Z,1028.73
2019-05-14T04:36:59.336Z,1028.76
2019-05-14T04:37:58.862Z,1028.74
2019-05-14T04:39:00.624Z,1028.76
2019-05-14T04:39:59.332Z,1028.79
2019-05-14T04:40:59.786Z,1028.81
2019-05-14T04:41:59.944Z,1028.82
2019-05-14T04:42:59.162Z,1028.84
2019-05-14T04:43:59.490Z,1028.83
2019-05-14T04:45:00.786Z,1028.82
2019-05-14T04:45:59.526Z,1028.83
2019-05-14T04:46:59.995Z,1028.84
2019-05-14T04:48:00.198Z,1028.79
2019-05-14T04:48:59.211Z,1028.81
2019-05-14T04:49:59.189Z,1028.87
2019-05-14T04:51:00.375Z,1028.83
2019-05-14T04:51:59.539Z,1028.81
2019-05-14T04:52:59.883Z,1028.83
2019-05-14T04:53:59.842Z,1028.88
2019-05-14T04:54:59.404Z,1028.85
2019-05-14T04:56:00.086Z,1028.76
2019-05-14T04:56:59.996Z,1028.81
2019-05-14T04:57:59.062Z,1028.73
2019-05-14T04:58:59.656Z,1028.72
2019-05-14T04:59:59.776Z,1028.73
2019-05-14T05:01:00.623Z,1028.75
2019-05-14T05:02:00.002Z,1028.76
2019-05-14T05:03:00.065Z,1028.77
2019-05-14T05:03:59.176Z,1028.82
2019-05-14T05:04:59.395Z,1028.81
2019-05-14T05:05:58.977Z,1028.77
2019-05-14T05:06:59.211Z,1028.83
2019-05-14T05:07:59.703Z,1028.88
2019-05-14T05:09:00.098Z,1028.82
2019-05-14T05:09:59.396Z,1028.83
2019-05-14T05:10:59.943Z,1028.86
2019-05-14T05:12:00.067Z,1028.86
2019-05-14T05:12:58.582Z,1028.78
2019-05-14T05:13:59.312Z,1028.83
2019-05-14T05:14:58.684Z,1028.80
2019-05-14T05:15:59.430Z,1028.80
2019-05-14T05:16:59.787Z,1028.85
2019-05-14T05:17:58.952Z,1028.86
2019-05-14T05:18:59.498Z,1028.81
2019-05-14T05:19:59.365Z,1028.78
2019-05-14T05:20:58.397Z,1028.74
2019-05-14T05:21:58.668Z,1028.81
2019-05-14T05:22:59.074Z,1028.79
2019-05-14T05:23:58.510Z,1028.75
2019-05-14T05:24:58.925Z,1028.74
2019-05-14T05:25:58.558Z,1028.81
2019-05-14T05:26:58.576Z,1028.83
2019-05-14T05:27:59.746Z,1028.77
2019-05-14T05:29:03.549Z,1028.81
2019-05-14T05:29:59.110Z,1028.82
2019-05-14T05:30:58.556Z,1028.81
2019-05-14T05:31:59.343Z,1028.82
2019-05-14T05:32:59.676Z,1028.84
2019-05-14T05:33:58.257Z,1028.87
2019-05-14T05:34:58.659Z,1028.84
2019-05-14T05:35:59.395Z,1028.82
2019-05-14T05:36:59.166Z,1028.79
2019-05-14T05:37:58.275Z,1028.82
2019-05-14T05:38:59.344Z,1028.82
2019-05-14T05:39:58.341Z,1028.80
2019-05-14T05:40:59.988Z,1028.80
2019-05-14T05:41:58.554Z,1028.81
2019-05-14T05:42:58.074Z,1028.84
2019-05-14T05:43:58.934Z,1028.89
2019-05-14T05:44:58.779Z,1028.88
2019-05-14T05:45:59.288Z,1028.90
2019-05-14T05:46:59.758Z,1028.90
2019-05-14T05:48:01.421Z,1028.85
2019-05-14T05:48:58.750Z,1028.86
2019-05-14T05:49:58.128Z,1028.89
2019-05-14T05:50:59.150Z,1028.85
2019-05-14T05:51:59.120Z,1028.82
2019-05-14T05:52:58.535Z,1028.85
2019-05-14T05:53:58.852Z,1028.85
2019-05-14T05:54:58.353Z,1028.87
2019-05-14T05:55:59.281Z,1028.81
2019-05-14T05:56:58.186Z,1028.84
2019-05-14T05:57:58.730Z,1028.83
2019-05-14T05:58:57.380Z,1028.85
2019-05-14T05:59:58.814Z,1028.87
2019-05-14T06:00:59.117Z,1028.89
2019-05-14T06:01:58.648Z,1028.85
2019-05-14T06:02:59.083Z,1028.87
2019-05-14T06:03:58.351Z,1028.88
2019-05-14T06:04:58.658Z,1028.84
2019-05-14T06:05:59.369Z,1028.86
2019-05-14T06:06:59.065Z,1028.83
2019-05-14T06:07:59.051Z,1028.87
2019-05-14T06:08:58.349Z,1028.83
2019-05-14T06:09:58.812Z,1028.86
2019-05-14T06:10:59.100Z,1028.82
2019-05-14T06:11:59.196Z,1028.83
2019-05-14T06:12:58.526Z,1028.81
2019-05-14T06:13:58.914Z,1028.72
2019-05-14T06:15:08.487Z,1028.69
2019-05-14T06:15:59.179Z,1028.73
2019-05-14T06:16:59.094Z,1028.71
2019-05-14T06:18:13.346Z,1028.75
2019-05-14T06:18:58.773Z,1028.71
2019-05-14T06:19:59.117Z,1028.68
2019-05-14T06:20:58.564Z,1028.67
2019-05-14T06:21:59.439Z,1028.69
2019-05-14T06:22:58.889Z,1028.64
2019-05-14T06:23:58.285Z,1028.66
2019-05-14T06:24:58.634Z,1028.64
2019-05-14T06:25:59.736Z,1028.61
2019-05-14T06:26:58.575Z,1028.65
2019-05-14T06:27:59.039Z,1028.63
2019-05-14T06:28:59.769Z,1028.67
2019-05-14T06:29:58.248Z,1028.71
2019-05-14T06:30:59.025Z,1028.66
2019-05-14T06:31:58.925Z,1028.69
2019-05-14T06:32:59.265Z,1028.63
2019-05-14T06:33:59.120Z,1028.60
2019-05-14T06:34:59.193Z,1028.66
2019-05-14T06:35:59.200Z,1028.52
2019-05-14T06:36:59.140Z,1028.62
2019-05-14T06:37:58.199Z,1028.61
2019-05-14T06:38:58.638Z,1028.63
2019-05-14T06:39:58.556Z,1028.60
2019-05-14T06:40:59.087Z,1028.65
2019-05-14T06:41:58.548Z,1028.59
2019-05-14T06:42:59.038Z,1028.56
2019-05-14T06:43:59.055Z,1028.65
2019-05-14T06:44:58.572Z,1028.63
2019-05-14T06:45:58.563Z,1028.61
2019-05-14T06:46:58.911Z,1028.56
2019-05-14T06:47:59.191Z,1028.59
2019-05-14T06:48:59.027Z,1028.66
2019-05-14T06:49:59.088Z,1028.64
2019-05-14T06:50:58.346Z,1028.61
2019-05-14T06:51:59.331Z,1028.58
2019-05-14T06:52:58.156Z,1028.59
2019-05-14T06:53:58.793Z,1028.63
2019-05-14T06:54:58.235Z,1028.59
2019-05-14T06:55:58.842Z,1028.67
2019-05-14T06:56:58.299Z,1028.60
2019-05-14T06:57:58.515Z,1028.63
2019-05-14T06:58:58.401Z,1028.55
2019-05-14T06:59:58.723Z,1028.62
2019-05-14T07:00:58.681Z,1028.67
2019-05-14T07:02:08.481Z,1028.73
2019-05-14T07:03:05.667Z,1028.71
2019-05-14T07:04:06.096Z,1028.61
2019-05-14T07:05:05.192Z,1028.70
2019-05-14T07:06:08.778Z,1028.70
2019-05-14T07:08:14.195Z,1028.70
2019-05-14T07:10:31.706Z,1028.65
2019-05-14T07:11:39.647Z,1028.75
2019-05-14T07:12:46.696Z,1028.74
2019-05-14T07:13:41.140Z,1028.75
2019-05-14T07:14:40.684Z,1028.73
2019-05-14T07:15:40.841Z,1028.77
2019-05-14T07:16:33.087Z,1028.81
2019-05-14T07:17:31.292Z,1028.84
2019-05-14T07:18:45.434Z,1028.85
2019-05-14T07:20:43.369Z,1028.69
2019-05-14T07:21:43.351Z,1028.71
2019-05-14T07:22:43.334Z,1028.70
2019-05-14T07:23:43.320Z,1028.74
2019-05-14T07:24:43.372Z,1028.63
2019-05-14T07:25:43.273Z,1028.73
2019-05-14T07:26:43.257Z,1028.71
2019-05-14T07:27:43.259Z,1028.72
2019-05-14T07:28:43.254Z,1028.71
2019-05-14T07:29:43.254Z,1028.75
2019-05-14T07:30:43.204Z,1028.74
2019-05-14T07:31:43.241Z,1028.71
2019-05-14T07:32:43.354Z,1028.72
2019-05-14T07:33:43.219Z,1028.70
2019-05-14T07:34:43.180Z,1028.72
2019-05-14T07:35:43.139Z,1028.67
2019-05-14T07:36:43.128Z,1028.69
2019-05-14T07:37:43.219Z,1028.65
2019-05-14T07:38:43.135Z,1028.64
2019-05-14T07:39:43.168Z,1028.64
2019-05-14T07:40:43.159Z,1028.66
2019-05-14T07:41:43.092Z,1028.68
2019-05-14T07:42:43.104Z,1028.72
2019-05-14T07:43:43.108Z,1028.69
2019-05-14T07:44:43.099Z,1028.68
2019-05-14T07:45:43.073Z,1028.68
2019-05-14T07:46:43.038Z,1028.68
2019-05-14T07:47:43.009Z,1028.63
2019-05-14T07:48:43.004Z,1028.74
2019-05-14T07:49:43.037Z,1028.63
2019-05-14T07:50:43.001Z,1028.59
2019-05-14T07:51:42.977Z,1028.62
2019-05-14T07:52:46.100Z,1028.62
2019-05-14T07:53:43.042Z,1028.61
2019-05-14T07:54:43.705Z,1028.60
2019-05-14T07:55:42.970Z,1028.62
2019-05-14T07:56:43.045Z,1028.62
2019-05-14T07:57:42.953Z,1028.62
2019-05-14T07:58:42.923Z,1028.61
2019-05-14T07:59:42.914Z,1028.56
2019-05-14T08:00:42.962Z,1028.55
2019-05-14T08:01:42.953Z,1028.52
2019-05-14T08:02:42.903Z,1028.48
2019-05-14T08:03:42.864Z,1028.59
2019-05-14T08:04:46.015Z,1028.54
2019-05-14T08:05:43.563Z,1028.50
2019-05-14T08:06:42.907Z,1028.53
2019-05-14T08:07:42.852Z,1028.54
2019-05-14T08:08:42.824Z,1028.45
2019-05-14T08:09:42.798Z,1028.50
2019-05-14T08:10:42.770Z,1028.53
2019-05-14T08:11:42.803Z,1028.45
2019-05-14T08:12:42.843Z,1028.48
2019-05-14T08:13:42.775Z,1028.45
2019-05-14T08:14:57.969Z,1028.43
2019-05-14T08:15:43.752Z,1028.34
2019-05-14T08:16:42.747Z,1028.36
2019-05-14T08:17:42.786Z,1028.39
2019-05-14T08:18:42.690Z,1028.33
2019-05-14T08:19:42.689Z,1028.34
2019-05-14T08:20:42.695Z,1028.35
2019-05-14T08:21:42.690Z,1028.33
2019-05-14T08:22:42.681Z,1028.33
2019-05-14T08:23:42.670Z,1028.29
2019-05-14T08:24:42.628Z,1028.41
2019-05-14T08:25:42.678Z,1028.35
2019-05-14T08:26:44.109Z,1028.31
2019-05-14T08:27:42.598Z,1028.37
2019-05-14T08:28:42.651Z,1028.34
2019-05-14T08:29:42.730Z,1028.32
2019-05-14T08:30:42.581Z,1028.23
2019-05-14T08:31:42.569Z,1028.25
2019-05-14T08:32:42.531Z,1028.30
2019-05-14T08:33:42.610Z,1028.27
2019-05-14T08:34:42.551Z,1028.28
2019-05-14T08:35:42.509Z,1028.21
2019-05-14T08:36:42.521Z,1028.17
2019-05-14T08:37:42.623Z,1028.24
2019-05-14T08:38:45.444Z,1028.24
2019-05-14T08:39:42.531Z,1028.15
2019-05-14T08:40:42.509Z,1028.16
2019-05-14T08:41:42.516Z,1028.14
2019-05-14T08:42:42.464Z,1028.09
2019-05-14T08:43:42.474Z,1028.14
2019-05-14T08:44:42.469Z,1028.12
2019-05-14T08:45:45.359Z,1028.06
2019-05-14T08:46:45.102Z,1028.07
2019-05-14T08:47:42.401Z,1028.03
2019-05-14T08:48:42.360Z,1028.04
2019-05-14T08:49:46.702Z,1028.08
2019-05-14T08:50:43.393Z,1028.07
2019-05-14T08:51:42.347Z,1028.12
2019-05-14T08:52:42.519Z,1028.09
2019-05-14T08:53:42.321Z,1028.09
2019-05-14T08:54:42.355Z,1028.08
2019-05-14T08:55:42.312Z,1028.01
2019-05-14T08:56:42.282Z,1027.92
2019-05-14T08:57:42.378Z,1027.98
2019-05-14T08:58:42.274Z,1027.97
2019-05-14T08:59:42.305Z,1027.96
2019-05-14T09:00:42.291Z,1028.01
2019-05-14T09:01:57.232Z,1027.96
2019-05-14T09:02:43.210Z,1027.93
2019-05-14T09:03:42.239Z,1027.94
2019-05-14T09:04:43.475Z,1027.92
2019-05-14T09:05:42.178Z,1028.00
2019-05-14T09:06:42.214Z,1027.95
2019-05-14T09:07:43.079Z,1027.98
2019-05-14T09:08:42.231Z,1027.92
2019-05-14T09:09:42.163Z,1027.96
2019-05-14T09:10:42.208Z,1027.94
2019-05-14T09:11:45.570Z,1027.92
2019-05-14T09:12:42.315Z,1027.87
2019-05-14T09:13:42.221Z,1027.84
2019-05-14T09:14:42.094Z,1027.81
2019-05-14T09:15:42.095Z,1027.83
2019-05-14T09:16:46.946Z,1027.82
2019-05-14T09:17:43.053Z,1027.83
2019-05-14T09:18:42.094Z,1027.84
2019-05-14T09:19:57.652Z,1027.88
2019-05-14T09:20:43.057Z,1027.87
2019-05-14T09:21:42.057Z,1027.87
2019-05-14T09:22:42.047Z,1027.85
2019-05-14T09:23:42.004Z,1027.84
2019-05-14T09:24:41.974Z,1027.85
2019-05-14T09:25:47.933Z,1027.84
2019-05-14T09:26:42.970Z,1027.77
2019-05-14T09:27:41.979Z,1027.79
2019-05-14T09:28:41.920Z,1027.79
2019-05-14T09:29:41.984Z,1027.77
2019-05-14T09:30:41.948Z,1027.87
2019-05-14T09:31:41.921Z,1027.76
2019-05-14T09:32:41.964Z,1027.79
2019-05-14T09:33:41.893Z,1027.80
2019-05-14T09:34:41.874Z,1027.82
2019-05-14T09:35:41.873Z,1027.73
2019-05-14T09:36:41.918Z,1027.75
2019-05-14T09:37:41.871Z,1027.73
2019-05-14T09:38:42.661Z,1027.75
2019-05-14T09:39:41.837Z,1027.69
2019-05-14T09:40:41.852Z,1027.69
2019-05-14T09:41:41.811Z,1027.70
2019-05-14T09:42:41.833Z,1027.65
2019-05-14T09:43:42.591Z,1027.67
2019-05-14T09:44:41.782Z,1027.64
2019-05-14T09:45:41.740Z,1027.65
2019-05-14T09:46:41.746Z,1027.68
2019-05-14T09:47:41.786Z,1027.64
2019-05-14T09:48:41.742Z,1027.71
2019-05-14T09:49:41.727Z,1027.62
2019-05-14T09:50:42.589Z,1027.67
2019-05-14T09:51:41.688Z,1027.69
2019-05-14T09:52:41.691Z,1027.69
2019-05-14T09:53:41.726Z,1027.69
2019-05-14T09:54:44.017Z,1027.75
2019-05-14T09:55:41.654Z,1027.62
2019-05-14T09:56:41.664Z,1027.61
2019-05-14T09:57:41.682Z,1027.64
2019-05-14T09:58:41.657Z,1027.58
2019-05-14T09:59:41.696Z,1027.62
2019-05-14T10:00:41.624Z,1027.63
2019-05-14T10:01:41.600Z,1027.57
2019-05-14T10:02:41.660Z,1027.59
2019-05-14T10:03:41.560Z,1027.53
2019-05-14T10:04:41.619Z,1027.60
2019-05-14T10:05:41.580Z,1027.60
2019-05-14T10:06:41.575Z,1027.55
2019-05-14T10:07:41.518Z,1027.49
2019-05-14T10:08:41.536Z,1027.51
2019-05-14T10:09:41.583Z,1027.50
2019-05-14T10:10:41.504Z,1027.48
2019-05-14T10:11:41.527Z,1027.43
2019-05-14T10:12:52.921Z,1027.50
2019-05-14T10:13:42.492Z,1027.35
2019-05-14T10:14:41.482Z,1027.39
2019-05-14T10:15:41.480Z,1027.42
2019-05-14T10:16:41.510Z,1027.47
2019-05-14T10:17:41.446Z,1027.48
2019-05-14T10:18:41.397Z,1027.46
2019-05-14T10:19:41.402Z,1027.55
2019-05-14T10:20:45.777Z,1027.48
2019-05-14T10:21:42.452Z,1027.47
2019-05-14T10:22:41.369Z,1027.39
2019-05-14T10:23:41.378Z,1027.42
2019-05-14T10:24:41.374Z,1027.41
2019-05-14T10:25:42.478Z,1027.43
2019-05-14T10:26:41.447Z,1027.52
2019-05-14T10:27:41.534Z,1027.44
2019-05-14T10:28:43.410Z,1027.46
2019-05-14T10:29:41.276Z,1027.42
2019-05-14T10:30:41.282Z,1027.41
2019-05-14T10:31:41.260Z,1027.31
2019-05-14T10:32:41.858Z,1027.35
2019-05-14T10:33:41.259Z,1027.39
2019-05-14T10:34:41.259Z,1027.35
2019-05-14T10:35:41.224Z,1027.32
2019-05-14T10:36:41.233Z,1027.35
2019-05-14T10:37:41.305Z,1027.31
2019-05-14T10:38:41.191Z,1027.38
2019-05-14T10:39:41.209Z,1027.41
2019-05-14T10:40:41.209Z,1027.43
2019-05-14T10:41:41.175Z,1027.39
2019-05-14T10:42:41.212Z,1027.46
2019-05-14T10:43:41.177Z,1027.43
2019-05-14T10:44:41.146Z,1027.45
2019-05-14T10:45:41.102Z,1027.43
2019-05-14T10:46:41.136Z,1027.40
2019-05-14T10:47:41.123Z,1027.37
2019-05-14T10:48:41.144Z,1027.43
2019-05-14T10:49:41.088Z,1027.36
2019-05-14T10:50:56.219Z,1027.38
2019-05-14T10:51:42.048Z,1027.36
2019-05-14T10:52:41.610Z,1027.30
2019-05-14T10:53:41.066Z,1027.38
2019-05-14T10:54:54.936Z,1027.32
2019-05-14T10:55:42.009Z,1027.33
2019-05-14T10:56:40.992Z,1027.27
2019-05-14T10:57:41.014Z,1027.26
2019-05-14T10:58:41.095Z,1027.25
2019-05-14T10:59:41.002Z,1027.15
2019-05-14T11:00:41.850Z,1027.20
2019-05-14T11:01:40.935Z,1027.15
2019-05-14T11:02:40.955Z,1027.11
2019-05-14T11:03:40.944Z,1027.06
2019-05-14T11:04:40.930Z,1027.08
2019-05-14T11:05:41.680Z,1027.03
2019-05-14T11:06:40.878Z,1027.09
2019-05-14T11:07:41.689Z,1027.12
2019-05-14T11:08:40.911Z,1027.19
2019-05-14T11:09:41.005Z,1027.16
2019-05-14T11:10:42.216Z,1027.23
2019-05-14T11:11:40.863Z,1027.24
2019-05-14T11:12:40.806Z,1027.18
2019-05-14T11:13:40.803Z,1027.23
2019-05-14T11:14:41.612Z,1027.19
2019-05-14T11:15:40.834Z,1027.13
2019-05-14T11:16:41.964Z,1027.18
2019-05-14T11:17:40.946Z,1027.22
2019-05-14T11:18:40.801Z,1027.28
2019-05-14T11:19:40.803Z,1027.23
2019-05-14T11:20:42.249Z,1027.29
2019-05-14T11:21:40.721Z,1027.32
2019-05-14T11:22:40.730Z,1027.20
2019-05-14T11:23:40.708Z,1027.23
2019-05-14T11:24:40.719Z,1027.19
2019-05-14T11:25:40.713Z,1027.27
2019-05-14T11:26:40.691Z,1027.26
2019-05-14T11:27:40.663Z,1027.25
2019-05-14T11:28:40.644Z,1027.24
2019-05-14T11:29:40.632Z,1027.24
2019-05-14T11:30:40.693Z,1027.20
2019-05-14T11:31:40.665Z,1027.21
2019-05-14T11:32:40.603Z,1027.11
2019-05-14T11:33:40.606Z,1027.15
2019-05-14T11:34:40.587Z,1027.10
2019-05-14T11:35:40.614Z,1027.06
2019-05-14T11:36:40.650Z,1027.15
2019-05-14T11:37:41.356Z,1027.12
2019-05-14T11:38:40.545Z,1027.02
2019-05-14T11:39:40.541Z,1027.08
2019-05-14T11:40:40.563Z,1027.11
2019-05-14T11:41:41.119Z,1027.10
2019-05-14T11:42:40.481Z,1027.14
2019-05-14T11:43:40.534Z,1027.18
2019-05-14T11:45:59.459Z,1027.15
2019-05-14T11:47:02.378Z,1027.08
2019-05-14T11:47:58.352Z,1027.11
2019-05-14T11:49:02.133Z,1027.07
2019-05-14T11:49:59.173Z,1027.05
2019-05-14T11:50:59.288Z,1027.07
2019-05-14T11:52:06.942Z,1027.06
2019-05-14T11:52:58.793Z,1026.98
2019-05-14T11:53:58.729Z,1027.00
2019-05-14T11:54:58.484Z,1027.00
2019-05-14T11:55:58.737Z,1026.98
2019-05-14T11:56:58.890Z,1026.98
2019-05-14T11:57:58.411Z,1026.92
2019-05-14T11:58:59.125Z,1026.92
2019-05-14T11:59:58.201Z,1026.91
2019-05-14T12:00:58.480Z,1026.88
2019-05-14T12:01:59.382Z,1026.89
2019-05-14T12:02:58.611Z,1026.84
2019-05-14T12:03:59.751Z,1026.81
2019-05-14T12:04:57.724Z,1026.78
2019-05-14T12:05:58.573Z,1026.84
2019-05-14T12:06:59.154Z,1026.81
2019-05-14T12:07:57.669Z,1026.80
2019-05-14T12:08:58.257Z,1026.78
2019-05-14T12:09:57.627Z,1026.85